Terminal Aerodrome Forecast
Issued by NWS

Home | Current Version | Previous Version | Text Only | Print | Product List | Glossary On
Versions: 1 2 3 4 5 6 7 8 9 10 11 12 13
101
FTUS42 KILM 120524
TAFCRE
TAF
KCRE 120524Z 1206/1306 04004KT P6SM OVC060
     FM121200 06008KT 6SM -FZRA BR SCT010 OVC040
     FM121500 03007KT 4SM -RA BR SCT007 OVC020
     FM122200 33004KT 4SM BR VCSH BKN007
     FM130200 29004KT P6SM FEW007 SCT025=

USA.gov is the U.S. government's official web portal to all federal, state and local government web resources and services.